Time;durP1;ratioP1;P1;durP2;ratioP2;P2;SDS_P1;SDS_P2;PMS_P1;PMS_P2;Temp;Humidity;BMP_temperature;BMP_pressure;BME280_temperature;BME280_humidity;BME280_pressure;Samples;Min_cycle;Max_cycle;Signal;HPM_P1;HPM_P2
2023/04/17 00:00:29;;;;;;;6.90;1.67;;;;;;;10.36;53.06;100396.09;5035256;28;20029;-68
2023/04/17 00:02:55;;;;;;;6.73;1.97;;;;;;;10.25;53.07;100389.09;5036331;28;20061;-68
2023/04/17 00:05:22;;;;;;;4.70;1.50;;;;;;;10.18;52.90;100387.34;5035679;28;20028;-68
2023/04/17 00:07:48;;;;;;;7.90;1.90;;;;;;;10.11;53.10;100393.47;5038557;28;20056;-68
2023/04/17 00:10:14;;;;;;;6.47;1.60;;;;;;;10.04;53.29;100388.22;5039803;28;20021;-68
2023/04/17 00:12:40;;;;;;;5.45;1.60;;;;;;;9.98;53.27;100392.59;5040058;28;20089;-68
2023/04/17 00:15:06;;;;;;;7.67;1.93;;;;;;;9.91;53.79;100386.47;5039955;28;20535;-68
2023/04/17 00:17:31;;;;;;;8.13;1.70;;;;;;;9.87;53.83;100387.34;5038524;28;20029;-68
2023/04/17 00:19:56;;;;;;;14.07;2.07;;;;;;;9.88;53.56;100381.19;5040027;28;20033;-68
2023/04/17 00:22:22;;;;;;;11.95;2.10;;;;;;;9.85;54.15;100376.78;5041620;28;20033;-68
2023/04/17 00:24:47;;;;;;;10.07;2.23;;;;;;;9.85;54.14;100373.31;5059899;28;20028;-68
2023/04/17 00:27:13;;;;;;;11.80;2.17;;;;;;;9.87;53.70;100376.81;5059664;28;20072;-68
2023/04/17 00:29:38;;;;;;;8.50;1.70;;;;;;;9.87;53.54;100376.81;5038675;28;20029;-68
2023/04/17 00:32:04;;;;;;;10.73;2.53;;;;;;;9.84;53.78;100371.56;5039418;28;20072;-68
2023/04/17 00:34:29;;;;;;;11.57;2.37;;;;;;;9.81;53.79;100366.28;5039610;28;20036;-68
2023/04/17 00:36:55;;;;;;;14.27;2.87;;;;;;;9.79;53.86;100362.78;5039617;28;20021;-68
2023/04/17 00:39:20;;;;;;;12.97;2.60;;;;;;;9.75;53.73;100362.75;5039372;28;20252;-68
2023/04/17 00:41:46;;;;;;;9.43;2.30;;;;;;;9.70;54.14;100369.78;5038214;28;20534;-68
2023/04/17 00:44:11;;;;;;;11.88;2.58;;;;;;;9.65;53.91;100362.78;5038223;28;20021;-68
2023/04/17 00:46:37;;;;;;;9.60;2.47;;;;;;;9.61;54.04;100364.50;5039303;28;20490;-68
2023/04/17 00:49:03;;;;;;;15.57;2.87;;;;;;;9.59;53.97;100363.63;5039290;28;20021;-68
2023/04/17 00:51:30;;;;;;;17.10;3.25;;;;;;;9.56;54.00;100361.00;5043986;28;20085;-68
2023/04/17 00:53:57;;;;;;;19.65;3.67;;;;;;;9.53;54.01;100366.25;5038994;28;20397;-68
2023/04/17 00:56:23;;;;;;;24.07;4.03;;;;;;;9.48;54.12;100359.22;5039045;28;20021;-68
2023/04/17 00:58:49;;;;;;;27.25;4.80;;;;;;;9.43;54.08;100355.72;5039286;28;20124;-68
2023/04/17 01:01:16;;;;;;;19.30;3.90;;;;;;;9.41;54.17;100357.47;5039275;28;20021;-68
2023/04/17 01:03:42;;;;;;;24.67;3.88;;;;;;;9.39;54.08;100356.59;5039123;28;20029;-68
2023/04/17 01:06:08;;;;;;;19.30;2.97;;;;;;;9.39;54.14;100353.97;5038808;28;20036;-68
2023/04/17 01:08:42;;;;;;;20.87;3.63;;;;;;;9.39;54.13;100353.97;5021156;28;20025;-68
2023/04/17 01:11:08;;;;;;;16.40;2.97;;;;;;;9.33;54.21;100343.44;5038835;28;20489;-70
2023/04/17 01:13:34;;;;;;;11.32;2.33;;;;;;;9.26;54.43;100350.44;5039101;28;20080;-70
2023/04/17 01:15:59;;;;;;;7.70;1.93;;;;;;;9.21;54.27;100339.03;5038598;28;20426;-70
2023/04/17 01:18:25;;;;;;;5.82;1.65;;;;;;;9.16;54.28;100341.63;5038913;28;20532;-70
2023/04/17 01:20:50;;;;;;;4.87;1.53;;;;;;;9.05;54.77;100335.47;5038711;28;20040;-68
2023/04/17 01:23:16;;;;;;;4.63;1.60;;;;;;;9.00;54.86;100326.69;5048214;28;20032;-68
2023/04/17 01:25:41;;;;;;;6.10;1.70;;;;;;;8.98;54.84;100331.06;5040992;28;20263;-70
2023/04/17 01:28:07;;;;;;;5.53;1.30;;;;;;;8.96;54.88;100324.94;5038699;28;20049;-70
2023/04/17 01:30:32;;;;;;;5.00;1.47;;;;;;;8.92;54.75;100316.16;5038183;28;20025;-70
2023/04/17 01:32:57;;;;;;;5.78;1.80;;;;;;;8.89;55.04;100319.66;5038576;28;20038;-71
2023/04/17 01:35:23;;;;;;;6.10;1.60;;;;;;;8.85;54.90;100325.78;5038453;28;20027;-70
2023/04/17 01:37:48;;;;;;;5.73;1.50;;;;;;;8.81;54.97;100316.13;5038623;28;20086;-70
2023/04/17 01:40:14;;;;;;;6.27;1.40;;;;;;;8.78;55.00;100308.22;5038307;28;20087;-68
2023/04/17 01:42:40;;;;;;;5.20;1.67;;;;;;;8.78;55.21;100316.09;5038247;28;20036;-68
2023/04/17 01:45:06;;;;;;;5.47;1.50;;;;;;;8.78;55.31;100302.13;5038385;28;20029;-70
2023/04/17 01:47:31;;;;;;;5.35;1.80;;;;;;;8.77;55.30;100303.84;5038412;28;20393;-70
2023/04/17 01:49:57;;;;;;;5.60;1.60;;;;;;;8.75;55.19;100303.84;5038099;28;20385;-70
2023/04/17 01:52:22;;;;;;;30.58;6.03;;;;;;;8.70;55.07;100299.44;5041900;28;20037;-70
2023/04/17 01:54:47;;;;;;;40.13;8.10;;;;;;;8.60;55.15;100299.41;5038280;28;20052;-70
2023/04/17 01:57:13;;;;;;;34.60;6.47;;;;;;;8.51;55.45;100306.38;5038149;28;20029;-70
2023/04/17 01:59:38;;;;;;;25.77;6.27;;;;;;;8.41;56.13;100302.78;5037968;28;20076;-70
2023/04/17 02:02:03;;;;;;;20.73;5.00;;;;;;;8.32;55.90;100303.59;5037815;28;20025;-70
2023/04/17 02:04:29;;;;;;;21.03;5.40;;;;;;;8.22;56.28;100307.91;5037939;28;20029;-70
2023/04/17 02:06:54;;;;;;;17.57;4.37;;;;;;;8.15;56.47;100309.63;5037958;28;20776;-70
2023/04/17 02:09:20;;;;;;;9.63;2.60;;;;;;;8.16;56.21;100302.63;5037591;28;20030;-70
2023/04/17 02:11:45;;;;;;;7.03;1.97;;;;;;;8.21;56.49;100293.03;5038085;28;20416;-70
2023/04/17 02:14:10;;;;;;;5.57;1.60;;;;;;;8.24;56.40;100295.69;5036340;28;20029;-70
2023/04/17 02:16:44;;;;;;;7.03;1.27;;;;;;;8.26;56.37;100298.31;5037861;28;20088;-70
2023/04/17 02:19:10;;;;;;;5.03;1.40;;;;;;;8.26;56.40;100299.19;5037494;28;20049;-70
2023/04/17 02:21:36;;;;;;;5.78;1.40;;;;;;;8.27;56.11;100300.09;5037519;28;20030;-70
2023/04/17 02:24:01;;;;;;;5.70;1.37;;;;;;;8.25;56.05;100302.69;5054182;28;20143;-70
2023/04/17 02:26:26;;;;;;;4.30;1.30;;;;;;;8.25;56.14;100307.94;5056302;28;20031;-70
2023/04/17 02:28:52;;;;;;;4.60;1.43;;;;;;;8.24;56.45;100303.56;5043668;28;20372;-68
2023/04/17 02:31:17;;;;;;;4.67;1.27;;;;;;;8.25;56.06;100309.69;5037339;28;20021;-67
2023/04/17 02:33:42;;;;;;;6.13;1.30;;;;;;;8.24;56.49;100310.56;5037298;28;20101;-70
2023/04/17 02:36:08;;;;;;;5.17;1.23;;;;;;;8.22;56.49;100313.16;5036120;28;20559;-70
2023/04/17 02:38:33;;;;;;;4.43;1.48;;;;;;;8.14;56.53;100309.63;5037111;28;20537;-70
2023/04/17 02:40:59;;;;;;;5.43;1.40;;;;;;;8.04;56.38;100306.91;5035963;28;20065;-68
2023/04/17 02:43:24;;;;;;;6.57;1.40;;;;;;;8.00;57.23;100314.78;5037302;28;20037;-70
2023/04/17 02:45:50;;;;;;;7.10;1.70;;;;;;;7.96;56.40;100313.88;5037053;28;20112;-68
2023/04/17 02:48:17;;;;;;;4.72;1.52;;;;;;;7.95;56.89;100316.47;5037399;28;20028;-70
2023/04/17 02:50:42;;;;;;;6.13;1.77;;;;;;;7.92;56.62;100309.47;5038329;28;20421;-70
2023/04/17 02:53:08;;;;;;;5.97;1.70;;;;;;;7.92;56.92;100313.81;5040858;28;20117;-70
2023/04/17 02:55:33;;;;;;;5.88;1.75;;;;;;;7.93;57.06;100310.31;5037108;28;20057;-70
2023/04/17 02:57:59;;;;;;;4.57;1.47;;;;;;;7.90;57.19;100312.06;5035597;28;20036;-70
2023/04/17 03:00:26;;;;;;;5.27;1.47;;;;;;;7.85;56.63;100311.16;5037082;28;20041;-70
2023/04/17 03:02:51;;;;;;;5.95;1.40;;;;;;;7.80;57.34;100311.97;5036987;28;20438;-70
2023/04/17 03:05:19;;;;;;;5.63;1.67;;;;;;;7.78;57.43;100318.97;5035657;28;20053;-70
2023/04/17 03:07:44;;;;;;;4.93;1.67;;;;;;;7.74;57.71;100312.84;5036952;28;20024;-67
2023/04/17 03:10:10;;;;;;;6.03;1.80;;;;;;;7.71;57.42;100313.66;5036811;28;20025;-70
2023/04/17 03:12:35;;;;;;;6.83;1.60;;;;;;;7.68;57.42;100315.38;5037083;28;20029;-70
2023/04/17 03:15:01;;;;;;;5.30;1.70;;;;;;;7.66;57.51;100317.09;5037003;28;20025;-70
2023/04/17 03:17:26;;;;;;;6.40;1.70;;;;;;;7.63;57.50;100311.84;5036741;28;20516;-70
2023/04/17 03:19:52;;;;;;;4.87;1.60;;;;;;;7.58;57.92;100314.41;5036660;28;20857;-70
2023/04/17 03:22:17;;;;;;;4.90;1.63;;;;;;;7.55;57.70;100310.03;5039393;28;20024;-70
2023/04/17 03:24:42;;;;;;;5.43;1.57;;;;;;;7.53;58.10;100321.38;5055470;28;20388;-70
2023/04/17 03:27:08;;;;;;;5.33;1.60;;;;;;;7.49;58.09;100316.97;5056596;28;20029;-70
2023/04/17 03:29:33;;;;;;;5.15;1.67;;;;;;;7.49;58.42;100314.34;5037935;28;20033;-70
2023/04/17 03:31:59;;;;;;;5.53;1.90;;;;;;;7.52;58.13;100314.38;5036329;28;20030;-68
2023/04/17 03:34:25;;;;;;;5.17;1.70;;;;;;;7.55;57.79;100317.00;5036677;28;20507;-69
2023/04/17 03:39:16;;;;;;;4.80;1.23;;;;;;;7.59;58.17;100316.16;5043766;28;20036;-69
2023/04/17 03:41:41;;;;;;;3.85;1.42;;;;;;;7.57;58.03;100310.94;5039145;28;20120;-68
2023/04/17 03:44:11;;;;;;;3.90;1.30;;;;;;;7.52;57.98;100309.13;5040631;28;20075;-69
2023/04/17 03:46:37;;;;;;;4.45;1.30;;;;;;;7.41;58.32;100307.28;5040756;28;20026;-68
2023/04/17 03:49:03;;;;;;;4.60;1.20;;;;;;;7.33;58.44;100314.19;5040336;28;20021;-68
2023/04/17 03:51:28;;;;;;;5.63;1.52;;;;;;;7.28;58.79;100311.53;5041031;28;20393;-68
2023/04/17 03:53:54;;;;;;;4.80;1.70;;;;;;;7.23;59.37;100309.72;5040219;28;20033;-68
2023/04/17 03:56:20;;;;;;;3.57;1.20;;;;;;;7.22;58.78;100305.34;5041053;28;20068;-68
2023/04/17 03:58:45;;;;;;;4.65;1.60;;;;;;;7.22;59.40;100302.72;5046918;28;20022;-68
2023/04/17 04:01:11;;;;;;;3.97;1.30;;;;;;;7.23;59.11;100309.72;5038921;28;20104;-68
2023/04/17 04:03:36;;;;;;;4.18;1.30;;;;;;;7.20;58.49;100309.69;5040115;28;20029;-68
2023/04/17 04:06:02;;;;;;;5.90;1.60;;;;;;;7.20;58.89;100304.47;5040368;28;20085;-68
2023/04/17 04:08:27;;;;;;;5.32;1.80;;;;;;;7.21;58.55;100306.22;5040219;28;20026;-68
2023/04/17 04:10:53;;;;;;;5.03;1.73;;;;;;;7.20;58.69;100307.94;5040279;28;20072;-68
2023/04/17 04:13:18;;;;;;;4.93;1.63;;;;;;;7.17;58.77;100307.91;5040218;28;20027;-68
2023/04/17 04:15:43;;;;;;;4.27;1.40;;;;;;;7.08;59.02;100300.84;5039804;28;20659;-68
2023/04/17 04:18:09;;;;;;;4.93;1.67;;;;;;;7.02;59.18;100298.16;5040049;28;20516;-68
2023/04/17 04:20:34;;;;;;;4.28;1.60;;;;;;;6.95;59.50;100301.56;5039776;28;20049;-68
2023/04/17 04:23:00;;;;;;;4.40;1.50;;;;;;;6.87;59.73;100305.00;5048608;28;20033;-68
2023/04/17 04:25:25;;;;;;;3.93;1.70;;;;;;;6.79;60.17;100306.63;5059889;28;20021;-68
2023/04/17 04:27:52;;;;;;;5.17;1.60;;;;;;;6.74;60.54;100305.69;5055031;28;20026;-68
2023/04/17 04:30:19;;;;;;;5.35;1.67;;;;;;;6.67;59.70;100312.59;5039596;28;20022;-68
2023/04/17 04:32:44;;;;;;;3.83;1.63;;;;;;;6.68;59.96;100313.47;5039695;28;20035;-68
2023/04/17 04:35:13;;;;;;;4.47;1.53;;;;;;;6.73;60.07;100303.94;5039519;28;20030;-68
2023/04/17 04:37:41;;;;;;;6.80;1.83;;;;;;;6.77;59.97;100310.09;5039493;28;20048;-68
2023/04/17 04:40:11;;;;;;;5.72;1.35;;;;;;;6.78;60.03;100304.88;5039648;28;20089;-68
2023/04/17 04:42:38;;;;;;;5.38;1.83;;;;;;;6.78;60.05;100311.84;5038163;28;20044;-68
2023/04/17 04:45:04;;;;;;;6.57;1.80;;;;;;;6.75;60.00;100310.06;5039449;28;20512;-68
2023/04/17 04:47:30;;;;;;;5.90;2.23;;;;;;;6.71;60.04;100308.28;5039448;28;20517;-68
2023/04/17 04:49:55;;;;;;;4.28;1.60;;;;;;;6.69;59.96;100304.75;5039287;28;20029;-68
2023/04/17 04:52:21;;;;;;;6.77;1.70;;;;;;;6.68;60.35;100303.88;5043924;28;20041;-68
2023/04/17 04:54:46;;;;;;;6.17;1.60;;;;;;;6.67;60.53;100311.72;5039286;28;20037;-68
2023/04/17 04:57:11;;;;;;;6.67;1.80;;;;;;;6.67;60.45;100316.94;5039228;28;20400;-68
2023/04/17 04:59:37;;;;;;;7.10;1.87;;;;;;;6.67;60.22;100316.94;5037757;28;20035;-68
2023/04/17 05:02:02;;;;;;;6.00;1.85;;;;;;;6.68;60.09;100319.56;5039299;28;20040;-68
2023/04/17 05:04:27;;;;;;;4.97;1.70;;;;;;;6.68;60.43;100323.94;5039122;28;20090;-68
2023/04/17 05:06:53;;;;;;;4.33;1.60;;;;;;;6.70;59.91;100322.22;5037681;28;20029;-68
2023/04/17 05:09:19;;;;;;;4.73;1.70;;;;;;;6.72;60.57;100329.22;5038805;28;20045;-68
2023/04/17 05:11:44;;;;;;;5.50;1.80;;;;;;;6.73;60.20;100327.50;5039051;28;20264;-68
2023/04/17 05:14:10;;;;;;;5.03;1.93;;;;;;;6.73;60.11;100324.88;5037653;28;20037;-68
2023/04/17 05:16:35;;;;;;;7.60;1.87;;;;;;;6.76;60.14;100322.28;5038924;28;20029;-68
2023/04/17 05:19:01;;;;;;;7.30;1.75;;;;;;;6.76;59.99;100327.53;5038725;28;20041;-68
2023/04/17 05:21:26;;;;;;;5.70;1.73;;;;;;;6.73;60.31;100336.19;5038611;28;20045;-69
2023/04/17 05:23:52;;;;;;;6.07;1.97;;;;;;;6.68;60.32;100335.28;5038490;28;20033;-68
2023/04/17 05:26:20;;;;;;;5.77;1.90;;;;;;;6.67;60.42;100340.50;5038939;28;20282;-68
2023/04/17 05:28:46;;;;;;;5.38;2.15;;;;;;;6.65;60.81;100342.22;5029027;28;20040;-68
2023/04/17 05:31:12;;;;;;;4.88;1.83;;;;;;;6.66;60.30;100341.38;5038359;28;20034;-68
2023/04/17 05:33:37;;;;;;;7.70;2.00;;;;;;;6.67;60.36;100349.22;5038510;28;20030;-68
2023/04/17 05:36:03;;;;;;;6.88;2.80;;;;;;;6.71;60.12;100340.53;5038626;28;20048;-68
2023/04/17 05:38:28;;;;;;;5.53;2.43;;;;;;;6.78;60.30;100336.28;5038203;28;20551;-68
2023/04/17 05:40:54;;;;;;;7.90;2.47;;;;;;;6.81;59.97;100336.31;5038284;28;20077;-68
2023/04/17 05:43:20;;;;;;;7.37;2.10;;;;;;;6.80;60.38;100341.53;5038220;28;20694;-69
2023/04/17 05:45:46;;;;;;;5.40;2.20;;;;;;;6.95;59.47;100351.31;5038084;28;20049;-68
2023/04/17 05:48:11;;;;;;;7.32;1.88;;;;;;;7.06;59.13;100351.44;5038041;28;20109;-68
2023/04/17 05:50:37;;;;;;;4.70;1.77;;;;;;;7.21;59.07;100350.75;5038694;28;20029;-68
2023/04/17 05:53:03;;;;;;;5.15;2.00;;;;;;;7.40;59.01;100342.22;5041556;28;20063;-68
2023/04/17 05:55:28;;;;;;;7.47;2.00;;;;;;;7.63;58.00;100344.19;5038553;28;20061;-68
2023/04/17 05:57:54;;;;;;;7.32;2.20;;;;;;;7.95;57.74;100343.56;5038014;28;20057;-68
2023/04/17 06:00:21;;;;;;;5.03;1.80;;;;;;;8.31;56.81;100335.97;5037643;28;20047;-68
2023/04/17 06:02:47;;;;;;;9.77;2.00;;;;;;;8.64;56.31;100333.56;5032751;28;20029;-74
2023/04/17 06:05:13;;;;;;;7.77;2.90;;;;;;;8.92;55.43;100331.03;5022252;28;20030;-70
2023/04/17 06:07:39;;;;;;;7.22;2.50;;;;;;;9.15;55.24;100336.38;5026375;28;20030;-70
2023/04/17 06:10:05;;;;;;;5.88;1.88;;;;;;;9.32;54.71;100341.69;5037547;28;20013;-70
2023/04/17 06:12:31;;;;;;;8.10;2.30;;;;;;;9.45;54.62;100338.19;5036583;28;20080;-70
2023/04/17 06:14:57;;;;;;;4.80;1.98;;;;;;;9.54;53.98;100339.09;5037859;28;20025;-70
2023/04/17 06:17:22;;;;;;;5.47;2.00;;;;;;;9.48;54.75;100338.19;5037272;28;20489;-70
2023/04/17 06:19:47;;;;;;;8.65;2.15;;;;;;;9.54;54.80;100341.72;5037400;28;20073;-69
2023/04/17 06:22:13;;;;;;;8.93;2.60;;;;;;;9.68;54.79;100342.59;5037381;28;20106;-70
2023/04/17 06:24:38;;;;;;;7.10;2.30;;;;;;;9.84;54.59;100340.00;5036398;28;20393;-69
2023/04/17 06:27:04;;;;;;;5.10;1.97;;;;;;;9.92;54.10;100340.84;5037386;28;20079;-70
2023/04/17 06:29:29;;;;;;;7.57;2.90;;;;;;;9.88;54.16;100337.34;5035499;28;20022;-70
2023/04/17 06:31:55;;;;;;;13.40;2.83;;;;;;;9.79;54.68;100347.88;5036171;28;20351;-68
2023/04/17 06:34:21;;;;;;;5.83;2.37;;;;;;;9.76;55.12;100355.75;5037071;28;20025;-69
2023/04/17 06:36:47;;;;;;;7.35;2.80;;;;;;;9.80;55.12;100354.03;5037035;28;20025;-68
2023/04/17 06:39:12;;;;;;;8.38;2.40;;;;;;;9.86;55.79;100359.28;5037342;28;20028;-68
2023/04/17 06:41:37;;;;;;;7.57;2.03;;;;;;;9.96;55.08;100355.75;5037067;28;20030;-69
2023/04/17 06:44:03;;;;;;;8.63;2.93;;;;;;;10.07;55.16;100353.13;5035627;28;20036;-68
2023/04/17 06:46:28;;;;;;;6.20;2.30;;;;;;;10.09;54.96;100350.50;5036054;28;20101;-68
2023/04/17 06:48:56;;;;;;;9.07;2.77;;;;;;;10.20;55.03;100354.00;5036803;28;20018;-68
2023/04/17 06:51:24;;;;;;;7.85;2.28;;;;;;;10.40;54.46;100356.66;5040496;28;20029;-68
2023/04/17 06:53:49;;;;;;;5.97;2.30;;;;;;;10.59;54.44;100352.22;5036917;28;20036;-68
2023/04/17 06:56:15;;;;;;;8.38;2.83;;;;;;;10.75;54.16;100350.41;5036843;28;20393;-68
2023/04/17 06:58:42;;;;;;;6.73;2.30;;;;;;;10.91;53.80;100345.94;5037124;28;20036;-68
2023/04/17 07:01:09;;;;;;;7.32;2.30;;;;;;;11.06;53.47;100347.63;5035575;28;20021;-68
2023/04/17 07:03:35;;;;;;;8.00;2.70;;;;;;;11.16;53.63;100348.47;5036894;28;20029;-68
2023/04/17 07:06:00;;;;;;;6.43;2.60;;;;;;;11.30;53.33;100353.66;5036997;28;20021;-68
2023/04/17 07:08:25;;;;;;;8.67;3.20;;;;;;;11.39;52.96;100347.44;5035589;28;20021;-68
2023/04/17 07:10:51;;;;;;;7.90;3.20;;;;;;;11.43;53.08;100349.19;5036878;28;20366;-68
2023/04/17 07:13:16;;;;;;;7.43;2.70;;;;;;;11.48;53.18;100351.81;5035726;28;20037;-68
2023/04/17 07:15:42;;;;;;;6.70;2.63;;;;;;;11.63;53.11;100350.81;5036579;28;20075;-68
2023/04/17 07:18:07;;;;;;;5.90;2.58;;;;;;;11.84;52.88;100351.53;5036851;28;20499;-69
2023/04/17 07:20:33;;;;;;;8.73;2.70;;;;;;;12.06;52.75;100347.00;5024424;28;20474;-68
2023/04/17 07:22:58;;;;;;;7.07;2.40;;;;;;;12.28;52.26;100350.31;5032757;28;20393;-68
2023/04/17 07:25:23;;;;;;;6.37;2.30;;;;;;;12.45;51.81;100344.00;5033057;28;20029;-68
2023/04/17 07:27:49;;;;;;;8.95;2.60;;;;;;;12.60;51.71;100345.59;5026085;28;20058;-68
2023/04/17 07:30:14;;;;;;;7.27;2.80;;;;;;;12.72;51.21;100344.56;5032475;28;20044;-68
2023/04/17 07:32:40;;;;;;;7.87;2.60;;;;;;;12.82;51.14;100355.91;5032399;28;20392;-68
2023/04/17 07:35:06;;;;;;;7.15;2.42;;;;;;;12.95;50.64;100354.84;5035094;28;20032;-68
2023/04/17 07:37:33;;;;;;;6.60;2.30;;;;;;;13.18;50.63;100354.56;5036826;28;20436;-68
2023/04/17 07:39:58;;;;;;;5.53;2.53;;;;;;;13.38;50.10;100358.69;5036381;28;20021;-68
2023/04/17 07:42:24;;;;;;;6.87;2.30;;;;;;;13.52;50.34;100361.19;5035429;28;20059;-68
2023/04/17 07:44:49;;;;;;;6.27;2.60;;;;;;;13.67;50.31;100348.63;5036218;28;20371;-69
2023/04/17 07:47:14;;;;;;;6.53;2.30;;;;;;;13.90;49.88;100353.56;5035926;28;20394;-69
2023/04/17 07:49:40;;;;;;;9.17;2.77;;;;;;;14.16;49.34;100342.50;5036549;28;20017;-69
2023/04/17 07:52:05;;;;;;;7.27;2.60;;;;;;;14.29;48.71;100340.50;5040607;28;20021;-68
2023/04/17 07:54:31;;;;;;;6.07;2.30;;;;;;;14.35;48.51;100345.72;5030566;28;20033;-69
2023/04/17 07:56:56;;;;;;;8.83;2.60;;;;;;;14.43;48.44;100340.25;5036499;28;20335;-69
2023/04/17 07:59:22;;;;;;;7.80;2.80;;;;;;;14.56;47.97;100351.47;5036417;28;20070;-68
2023/04/17 08:01:48;;;;;;;7.00;2.87;;;;;;;14.75;47.52;100348.50;5034696;28;20033;-68
2023/04/17 08:04:13;;;;;;;9.87;3.53;;;;;;;14.87;46.58;100342.97;5026155;28;20369;-69
2023/04/17 08:06:39;;;;;;;7.70;3.17;;;;;;;14.96;46.59;100336.63;5036514;28;20044;-68
2023/04/17 08:09:05;;;;;;;7.13;3.00;;;;;;;15.06;46.82;100334.59;5034855;28;20280;-69
2023/04/17 08:11:31;;;;;;;7.57;2.60;;;;;;;15.27;46.48;100338.59;5036714;28;20033;-68
2023/04/17 08:13:56;;;;;;;6.97;2.90;;;;;;;15.47;46.27;100335.47;5036014;28;20030;-68
2023/04/17 08:16:22;;;;;;;9.23;3.10;;;;;;;15.67;45.41;100331.47;5035768;28;20021;-69
2023/04/17 08:18:47;;;;;;;10.47;3.73;;;;;;;15.77;45.42;100335.63;5035774;28;20030;-69
2023/04/17 08:21:13;;;;;;;7.43;2.92;;;;;;;15.89;45.51;100326.53;5035684;28;20029;-68
2023/04/17 08:23:39;;;;;;;9.00;3.40;;;;;;;16.03;45.58;100318.19;5035559;28;20080;-69
2023/04/17 08:26:05;;;;;;;8.52;2.92;;;;;;;16.19;45.45;100317.81;5036001;28;20370;-69
2023/04/17 08:28:30;;;;;;;9.90;3.10;;;;;;;16.34;44.92;100327.16;5036856;28;20026;-69
2023/04/17 08:30:56;;;;;;;9.03;3.20;;;;;;;16.43;44.45;100331.34;5037324;28;20421;-69
2023/04/17 08:33:21;;;;;;;8.63;3.17;;;;;;;16.39;44.37;100324.38;5038386;28;20036;-69
2023/04/17 08:35:47;;;;;;;10.50;3.00;;;;;;;16.48;44.61;100318.78;5034451;28;20500;-69
2023/04/17 08:38:13;;;;;;;6.67;2.67;;;;;;;16.61;44.51;100304.25;5035573;28;20121;-70
2023/04/17 08:40:41;;;;;;;7.22;3.10;;;;;;;16.73;44.71;100307.47;5037653;28;20559;-69
2023/04/17 08:43:19;;;;;;;8.15;3.20;;;;;;;16.87;44.12;100309.72;5039176;28;20108;-70
2023/04/17 08:45:54;;;;;;;8.23;2.90;;;;;;;16.93;44.02;100315.75;5038947;28;20043;-69
2023/04/17 08:48:20;;;;;;;9.40;2.70;;;;;;;17.01;44.25;100317.34;5038974;28;20060;-69
2023/04/17 08:50:47;;;;;;;7.47;2.87;;;;;;;17.10;44.19;100310.84;5039068;28;20014;-70
2023/04/17 08:53:13;;;;;;;8.88;3.38;;;;;;;17.15;43.82;100309.81;5038837;28;20128;-70
2023/04/17 08:55:38;;;;;;;6.95;3.22;;;;;;;17.18;43.68;100309.69;5038725;28;20057;-69
2023/04/17 08:58:04;;;;;;;8.27;3.23;;;;;;;17.25;43.81;100320.19;5038847;28;20021;-70
2023/04/17 09:00:41;;;;;;;6.93;3.20;;;;;;;17.36;43.46;100310.94;5039506;28;20051;-69
2023/04/17 09:03:09;;;;;;;9.00;3.53;;;;;;;17.44;42.45;100310.66;5039402;28;20025;-69
2023/04/17 09:05:36;;;;;;;8.32;3.35;;;;;;;17.39;43.33;100312.63;5038724;28;20037;-69
2023/04/17 09:08:07;;;;;;;10.25;3.20;;;;;;;17.50;42.95;100302.50;5038917;28;20489;-69
2023/04/17 09:10:51;;;;;;;7.20;3.35;;;;;;;17.59;42.79;100303.97;5038692;28;20021;-70
2023/04/17 09:13:19;;;;;;;9.38;3.30;;;;;;;17.66;43.02;100299.31;5028069;28;20068;-69
2023/04/17 09:16:01;;;;;;;9.20;3.30;;;;;;;17.79;42.95;100300.69;5038830;28;20028;-69
2023/04/17 09:18:31;;;;;;;9.77;3.72;;;;;;;17.88;42.62;100299.50;5038999;28;20129;-69
2023/04/17 09:20:58;;;;;;;7.53;3.22;;;;;;;17.91;42.62;100299.38;5038726;28;20068;-70
2023/04/17 09:23:24;;;;;;;7.88;3.20;;;;;;;18.01;42.05;100291.06;5037248;28;20025;-70
2023/04/17 09:26:13;;;;;;;7.53;3.40;;;;;;;18.15;42.31;100294.16;5038741;28;20033;-71
2023/04/17 09:28:39;;;;;;;9.27;3.03;;;;;;;18.33;41.96;100284.63;5038459;28;20492;-70
2023/04/17 09:31:17;;;;;;;8.32;3.90;;;;;;;18.38;40.83;100286.25;5025923;28;20029;-69
2023/04/17 09:34:06;;;;;;;8.68;3.60;;;;;;;18.30;40.89;100290.09;5040461;28;20025;-70
2023/04/17 09:36:37;;;;;;;8.63;3.40;;;;;;;18.36;41.66;100279.19;5038663;28;20049;-70
2023/04/17 09:39:22;;;;;;;9.13;3.75;;;;;;;18.33;41.07;100279.31;5038326;28;20049;-70
2023/04/17 09:41:48;;;;;;;9.77;3.90;;;;;;;18.33;41.53;100273.97;5034839;28;20486;-70
2023/04/17 09:44:27;;;;;;;7.55;3.72;;;;;;;18.29;41.63;100275.00;5037111;28;20025;-70
2023/04/17 09:46:53;;;;;;;9.30;3.70;;;;;;;18.40;41.66;100273.75;5035650;28;20025;-69
2023/04/17 09:49:43;;;;;;;7.40;3.70;;;;;;;18.41;41.45;100270.16;5030539;28;20014;-70
2023/04/17 09:52:10;;;;;;;6.88;3.45;;;;;;;18.56;41.70;100264.25;5042684;28;20037;-70
2023/04/17 09:54:38;;;;;;;7.50;3.67;;;;;;;18.74;41.29;100265.34;5034585;28;20109;-70
2023/04/17 09:57:09;;;;;;;10.90;4.03;;;;;;;18.72;40.88;100251.22;5038290;28;20029;-70
2023/04/17 09:59:43;;;;;;;8.20;3.43;;;;;;;18.75;41.34;100253.75;5038250;28;20164;-69
2023/04/17 10:02:11;;;;;;;8.88;3.70;;;;;;;18.89;40.93;100245.22;5037989;28;20025;-67
2023/04/17 10:04:40;;;;;;;9.25;3.70;;;;;;;18.94;40.20;100248.59;5034362;28;20026;-67
2023/04/17 10:07:06;;;;;;;7.20;3.60;;;;;;;19.00;40.38;100251.97;5028988;28;20021;-67
2023/04/17 10:09:32;;;;;;;9.17;3.97;;;;;;;19.05;40.52;100252.66;5036411;28;20448;-67
2023/04/17 10:12:00;;;;;;;7.20;3.75;;;;;;;19.17;40.44;100249.50;5037547;28;20040;-67
2023/04/17 10:14:30;;;;;;;6.57;2.93;;;;;;;19.19;40.52;100239.63;5037798;28;20030;-67
2023/04/17 10:16:55;;;;;;;7.68;3.28;;;;;;;19.17;39.98;100238.84;5037722;28;20021;-68
2023/04/17 10:19:35;;;;;;;7.07;3.53;;;;;;;19.11;40.23;100233.72;5036299;28;20048;-67
2023/04/17 10:22:13;;;;;;;6.60;3.13;;;;;;;19.17;40.32;100237.94;5036345;28;20029;-67
2023/04/17 10:24:38;;;;;;;7.03;3.05;;;;;;;19.13;39.48;100226.50;5037182;28;20520;-68
2023/04/17 10:27:25;;;;;;;6.72;3.22;;;;;;;19.10;40.31;100225.78;5036192;28;20025;-68
2023/04/17 10:29:53;;;;;;;6.63;2.87;;;;;;;19.15;39.86;100232.66;5034601;28;20083;-68
2023/04/17 10:32:19;;;;;;;6.28;2.70;;;;;;;19.16;40.64;100226.38;5037078;28;20444;-68
2023/04/17 10:34:45;;;;;;;8.00;3.17;;;;;;;19.31;40.20;100224.91;5037020;28;20037;-68
2023/04/17 10:37:14;;;;;;;6.72;3.08;;;;;;;19.43;40.32;100220.88;5036789;28;20033;-68
2023/04/17 10:39:58;;;;;;;8.82;2.88;;;;;;;19.51;39.98;100210.72;5037355;28;20044;-68
2023/04/17 10:42:25;;;;;;;6.70;3.10;;;;;;;19.71;39.96;100205.44;5031660;28;20048;-68
2023/04/17 10:44:56;;;;;;;7.63;3.15;;;;;;;19.83;39.52;100204.06;5037226;28;20051;-69
2023/04/17 10:47:28;;;;;;;7.10;2.63;;;;;;;19.81;39.58;100206.81;5037559;28;20493;-68
2023/04/17 10:49:57;;;;;;;6.88;2.60;;;;;;;19.88;39.48;100196.69;5035090;28;20055;-68
2023/04/17 10:52:36;;;;;;;7.15;2.60;;;;;;;19.86;39.21;100203.91;5039814;28;20033;-69
2023/04/17 10:55:13;;;;;;;6.63;2.50;;;;;;;19.87;38.56;100189.63;5036962;28;20100;-68
2023/04/17 10:57:51;;;;;;;6.57;2.72;;;;;;;19.89;39.02;100193.97;5037149;28;20056;-69
2023/04/17 11:00:18;;;;;;;6.63;2.55;;;;;;;19.94;38.85;100188.47;5035402;28;20024;-69
2023/04/17 11:02:44;;;;;;;8.45;2.70;;;;;;;19.91;38.52;100192.13;5050963;28;20566;-69
2023/04/17 11:05:10;;;;;;;5.40;2.60;;;;;;;19.91;39.16;100185.94;5036142;28;20029;-69
2023/04/17 11:07:36;;;;;;;8.50;3.00;;;;;;;20.03;39.06;100185.38;5036459;28;20106;-69
2023/04/17 11:10:08;;;;;;;6.03;2.45;;;;;;;20.07;37.90;100184.28;5034861;28;20401;-69
2023/04/17 11:12:34;;;;;;;7.10;2.58;;;;;;;20.21;38.28;100180.13;5036913;28;20041;-69
2023/04/17 11:15:03;;;;;;;6.17;2.50;;;;;;;20.35;37.83;100188.38;5036764;28;20033;-69
2023/04/17 11:17:28;;;;;;;5.70;2.40;;;;;;;20.50;38.26;100181.47;5036837;28;20022;-69
2023/04/17 11:19:55;;;;;;;7.13;2.60;;;;;;;20.56;38.01;100174.09;5036441;28;20650;-69
2023/04/17 11:22:21;;;;;;;5.82;2.33;;;;;;;20.67;37.92;100171.75;5035947;28;20068;-68
2023/04/17 11:24:50;;;;;;;5.17;2.20;;;;;;;20.87;37.89;100170.84;5036816;28;20577;-69
2023/04/17 11:27:15;;;;;;;6.20;2.10;;;;;;;20.89;37.67;100171.63;5034854;28;20071;-75
2023/04/17 11:29:43;;;;;;;6.10;2.20;;;;;;;20.90;37.44;100169.81;5031580;28;20029;-87